createdAt,value
2023-05-07T00:00:24.588Z,51.61
2023-05-07T00:02:52.369Z,51.46
2023-05-07T00:05:20.267Z,51.21
2023-05-07T00:07:48.097Z,51.68
2023-05-07T00:10:15.664Z,51.31
2023-05-07T00:12:43.312Z,51.53
2023-05-07T00:15:11.062Z,52.30
2023-05-07T00:17:39.329Z,51.80
2023-05-07T00:20:07.086Z,52.08
2023-05-07T00:22:34.386Z,52.01
2023-05-07T00:25:01.697Z,51.78
2023-05-07T00:27:28.897Z,52.07
2023-05-07T00:29:56.134Z,52.34
2023-05-07T00:32:23.332Z,52.30
2023-05-07T00:34:52.128Z,52.93
2023-05-07T00:37:19.424Z,52.47
2023-05-07T00:39:46.686Z,52.64
2023-05-07T00:42:14.043Z,52.16
2023-05-07T00:44:41.516Z,53.08
2023-05-07T00:47:08.795Z,53.11
2023-05-07T00:49:41.030Z,52.87
2023-05-07T00:52:08.923Z,53.40
2023-05-07T00:54:36.885Z,53.26
2023-05-07T00:57:04.950Z,52.96
2023-05-07T00:59:33.732Z,52.80
2023-05-07T01:02:01.048Z,52.90
2023-05-07T01:04:28.339Z,52.89
2023-05-07T01:06:57.248Z,53.04
2023-05-07T01:09:26.124Z,54.07
2023-05-07T01:11:53.836Z,53.94
2023-05-07T01:14:21.565Z,53.63
2023-05-07T01:16:49.403Z,54.03
2023-05-07T01:19:17.970Z,54.89
2023-05-07T01:21:46.859Z,54.09
2023-05-07T01:24:14.121Z,54.04
2023-05-07T01:26:41.435Z,54.13
2023-05-07T01:29:08.676Z,54.42
2023-05-07T01:31:35.955Z,54.50
2023-05-07T01:34:03.180Z,55.29
2023-05-07T01:36:31.259Z,54.90
2023-05-07T01:38:59.015Z,54.56
2023-05-07T01:41:26.647Z,55.14
2023-05-07T01:43:53.826Z,55.14
2023-05-07T01:46:21.097Z,54.92
2023-05-07T01:48:48.340Z,55.73
2023-05-07T01:51:15.725Z,55.37
2023-05-07T01:53:44.861Z,55.16
2023-05-07T01:56:12.262Z,55.90
2023-05-07T01:58:39.512Z,56.07
2023-05-07T02:01:06.762Z,56.55
2023-05-07T02:03:34.739Z,56.23
2023-05-07T02:06:02.401Z,56.52
2023-05-07T02:08:31.039Z,57.20
2023-05-07T02:10:58.346Z,56.72
2023-05-07T02:13:29.488Z,56.53
2023-05-07T02:15:56.780Z,57.41
2023-05-07T02:18:24.046Z,57.39
2023-05-07T02:20:51.280Z,57.48
2023-05-07T02:23:18.531Z,57.38
2023-05-07T02:25:47.007Z,58.15
2023-05-07T02:28:14.366Z,57.92
2023-05-07T02:30:41.789Z,57.94
2023-05-07T02:33:09.771Z,58.39
2023-05-07T02:35:37.881Z,58.37
2023-05-07T02:38:05.092Z,58.88
2023-05-07T02:40:34.725Z,58.68
2023-05-07T02:43:02.108Z,58.76
2023-05-07T02:45:29.518Z,58.61
2023-05-07T02:47:56.802Z,57.83
2023-05-07T02:50:24.119Z,57.76
2023-05-07T02:52:51.308Z,57.88
2023-05-07T02:55:18.675Z,57.88
2023-05-07T02:57:45.910Z,57.98
2023-05-07T03:00:18.069Z,57.17
2023-05-07T03:02:46.047Z,57.30
2023-05-07T03:05:13.716Z,57.18
2023-05-07T03:07:41.999Z,57.91
2023-05-07T03:10:09.595Z,57.48
2023-05-07T03:12:37.156Z,57.60
2023-05-07T03:15:04.680Z,56.96
2023-05-07T03:17:32.259Z,56.85
2023-05-07T03:19:59.556Z,57.09
2023-05-07T03:22:26.763Z,57.13
2023-05-07T03:24:54.024Z,56.81
2023-05-07T03:27:21.337Z,55.84
2023-05-07T03:29:48.879Z,56.87
2023-05-07T03:32:16.060Z,55.68
2023-05-07T03:34:43.384Z,56.68
2023-05-07T03:37:10.894Z,56.42
2023-05-07T03:39:38.288Z,56.12
2023-05-07T03:42:05.566Z,55.96
2023-05-07T03:44:33.045Z,55.48
2023-05-07T03:47:00.464Z,56.16
2023-05-07T03:49:27.708Z,55.54
2023-05-07T03:51:54.903Z,55.89
2023-05-07T03:54:22.244Z,55.74
2023-05-07T03:56:49.500Z,55.82
2023-05-07T03:59:16.726Z,56.18
2023-05-07T04:01:44.125Z,55.31
2023-05-07T04:04:11.545Z,55.27
2023-05-07T04:06:39.673Z,55.37
2023-05-07T04:09:07.621Z,54.60
2023-05-07T04:11:36.076Z,55.00
2023-05-07T04:14:03.937Z,54.17
2023-05-07T04:16:31.428Z,54.41
2023-05-07T04:18:58.651Z,53.90
2023-05-07T04:21:27.482Z,53.82
2023-05-07T04:23:54.787Z,52.49
2023-05-07T04:26:22.433Z,52.35
2023-05-07T04:28:49.686Z,52.00
2023-05-07T04:31:17.554Z,52.27
2023-05-07T04:33:44.907Z,52.46
2023-05-07T04:36:12.214Z,51.97
2023-05-07T04:38:39.652Z,51.11
2023-05-07T04:41:07.552Z,51.08
2023-05-07T04:43:35.164Z,50.55
2023-05-07T04:46:02.488Z,51.21
2023-05-07T04:48:30.066Z,50.59
2023-05-07T04:50:57.311Z,50.55
2023-05-07T04:53:24.849Z,50.74
2023-05-07T04:55:58.295Z,50.24
2023-05-07T04:58:25.571Z,49.55
2023-05-07T05:00:52.872Z,49.27
2023-05-07T05:03:20.337Z,49.85
2023-05-07T05:05:47.672Z,49.57
2023-05-07T05:08:14.989Z,49.67
2023-05-07T05:10:44.406Z,48.90
2023-05-07T05:13:13.876Z,48.42
2023-05-07T05:15:41.334Z,48.29
2023-05-07T05:18:08.715Z,47.87
2023-05-07T05:20:36.010Z,47.97
2023-05-07T05:23:03.254Z,47.47
2023-05-07T05:25:31.684Z,47.55
2023-05-07T05:27:58.936Z,46.57
2023-05-07T05:30:26.267Z,46.50
2023-05-07T05:32:53.691Z,46.05
2023-05-07T05:35:20.986Z,45.81
2023-05-07T05:37:49.204Z,45.26
2023-05-07T05:40:16.447Z,44.67
2023-05-07T05:42:43.849Z,44.71
2023-05-07T05:45:11.280Z,44.22
2023-05-07T05:47:38.991Z,44.10
2023-05-07T05:50:07.912Z,44.45
2023-05-07T05:52:35.924Z,44.02
2023-05-07T05:55:03.168Z,44.19
2023-05-07T05:57:30.946Z,44.08
2023-05-07T05:59:58.155Z,42.99
2023-05-07T06:02:25.505Z,44.20
2023-05-07T06:04:52.819Z,42.84
2023-05-07T06:07:21.207Z,43.22
2023-05-07T06:09:48.414Z,42.72
2023-05-07T06:12:15.870Z,42.01
2023-05-07T06:14:46.173Z,42.89
2023-05-07T06:17:13.487Z,42.88
2023-05-07T06:19:41.104Z,42.72
2023-05-07T06:22:08.407Z,42.49
2023-05-07T06:24:36.704Z,42.22
2023-05-07T06:27:03.961Z,42.16
2023-05-07T06:29:34.751Z,42.87
2023-05-07T06:32:12.448Z,42.53
2023-05-07T06:34:40.415Z,42.83
2023-05-07T06:37:07.764Z,42.31
2023-05-07T06:39:35.022Z,42.34
2023-05-07T06:42:03.338Z,42.45
2023-05-07T06:44:30.788Z,41.13
2023-05-07T06:46:58.218Z,41.27
2023-05-07T06:49:25.574Z,41.31
2023-05-07T06:51:52.822Z,41.12
2023-05-07T06:54:20.130Z,41.39
2023-05-07T06:56:47.338Z,42.17
2023-05-07T06:59:14.618Z,40.51
2023-05-07T07:01:41.938Z,40.68
2023-05-07T07:04:09.320Z,41.86
2023-05-07T07:06:37.265Z,41.43
2023-05-07T07:09:04.568Z,40.88
2023-05-07T07:11:31.820Z,40.96
2023-05-07T07:13:59.968Z,40.66
2023-05-07T07:16:27.341Z,40.33
2023-05-07T07:18:54.568Z,41.11
2023-05-07T07:21:21.816Z,40.93
2023-05-07T07:23:49.018Z,41.07
2023-05-07T07:26:16.458Z,41.11
2023-05-07T07:28:45.606Z,40.06
2023-05-07T07:31:13.638Z,40.85
2023-05-07T07:33:41.178Z,39.85
2023-05-07T07:36:08.678Z,40.57
2023-05-07T07:38:36.493Z,40.37
2023-05-07T07:41:03.927Z,39.24
2023-05-07T07:43:32.202Z,39.62
2023-05-07T07:45:59.420Z,39.41
2023-05-07T07:48:26.727Z,39.07
2023-05-07T07:50:53.934Z,39.27
2023-05-07T07:53:21.357Z,39.44
2023-05-07T07:55:48.677Z,38.63
2023-05-07T07:58:15.975Z,38.97
2023-05-07T08:00:43.271Z,38.49
2023-05-07T08:03:11.630Z,39.26
2023-05-07T08:05:39.526Z,39.07
2023-05-07T08:08:07.182Z,38.65
2023-05-07T08:10:35.878Z,38.19
2023-05-07T08:13:04.968Z,38.27
2023-05-07T08:15:32.427Z,37.81
2023-05-07T08:18:01.281Z,37.68
2023-05-07T08:20:29.699Z,37.77
2023-05-07T08:22:56.932Z,37.65
2023-05-07T08:25:24.384Z,37.05
2023-05-07T08:27:51.645Z,37.99
2023-05-07T08:30:18.896Z,37.71
2023-05-07T08:32:46.335Z,37.04
2023-05-07T08:35:13.862Z,36.67
2023-05-07T08:37:41.195Z,35.71
2023-05-07T08:40:10.667Z,36.59
2023-05-07T08:42:39.722Z,37.14
2023-05-07T08:45:10.346Z,36.56
2023-05-07T08:48:04.745Z,35.66
2023-05-07T08:50:32.168Z,37.46
2023-05-07T08:53:01.046Z,35.23
2023-05-07T08:55:28.318Z,34.95
2023-05-07T08:57:55.684Z,35.24
2023-05-07T09:00:23.134Z,35.18
2023-05-07T09:02:50.723Z,35.09
2023-05-07T09:05:18.140Z,35.14
2023-05-07T09:07:45.559Z,34.62
2023-05-07T09:10:13.176Z,34.78
2023-05-07T09:12:40.988Z,34.96
2023-05-07T09:15:09.189Z,34.13
2023-05-07T09:17:36.787Z,33.25
2023-05-07T09:20:06.161Z,32.37
2023-05-07T09:22:36.997Z,31.24
2023-05-07T09:25:04.678Z,30.82
2023-05-07T09:27:32.255Z,31.45
2023-05-07T09:29:59.594Z,28.99
2023-05-07T09:32:28.341Z,28.82
2023-05-07T09:34:55.722Z,28.29
2023-05-07T09:37:23.026Z,28.05
2023-05-07T09:39:50.592Z,27.18
2023-05-07T09:42:18.061Z,27.28
2023-05-07T09:44:48.230Z,27.17
2023-05-07T09:47:19.744Z,26.36
2023-05-07T09:49:48.994Z,25.49
2023-05-07T09:52:16.296Z,24.96
2023-05-07T09:54:46.451Z,25.65
2023-05-07T09:57:13.792Z,26.37
2023-05-07T09:59:41.513Z,25.49
2023-05-07T10:02:08.840Z,25.42
2023-05-07T10:04:36.099Z,24.84
2023-05-07T10:07:03.641Z,25.44
2023-05-07T10:09:31.314Z,25.44
2023-05-07T10:11:58.667Z,25.12
2023-05-07T10:14:25.990Z,24.81
2023-05-07T10:16:53.681Z,23.94
2023-05-07T10:19:21.531Z,24.86
2023-05-07T10:21:55.064Z,24.56
2023-05-07T10:24:32.471Z,24.22
2023-05-07T10:26:59.700Z,24.45
2023-05-07T10:29:51.804Z,23.63
2023-05-07T10:32:44.692Z,24.68
2023-05-07T10:35:26.257Z,24.28
2023-05-07T10:37:53.610Z,24.33
2023-05-07T10:40:21.671Z,23.11
2023-05-07T10:43:00.514Z,23.68
2023-05-07T10:45:28.516Z,24.49
2023-05-07T10:48:27.177Z,24.04
2023-05-07T10:51:22.783Z,23.29
2023-05-07T10:53:53.336Z,23.14
2023-05-07T10:56:21.272Z,22.16
2023-05-07T10:58:48.596Z,22.75
2023-05-07T11:01:18.036Z,22.72
2023-05-07T11:04:13.908Z,23.43
2023-05-07T11:06:41.798Z,22.27
2023-05-07T11:09:09.058Z,22.23
2023-05-07T11:11:52.294Z,22.77
2023-05-07T11:14:42.233Z,22.52
2023-05-07T11:17:09.675Z,22.20
2023-05-07T11:19:50.926Z,21.98
2023-05-07T11:22:34.180Z,22.31
2023-05-07T11:25:01.468Z,21.84
2023-05-07T11:27:28.788Z,22.32
2023-05-07T11:29:56.225Z,22.23
2023-05-07T11:32:24.541Z,22.14
2023-05-07T11:34:55.797Z,22.27
2023-05-07T11:37:23.996Z,22.27
2023-05-07T11:39:57.037Z,22.68
2023-05-07T11:42:32.977Z,22.31
2023-05-07T11:45:00.240Z,22.70
2023-05-07T11:47:27.709Z,22.57
2023-05-07T11:49:55.228Z,22.59
2023-05-07T11:52:23.842Z,22.26
2023-05-07T11:54:51.976Z,21.98
2023-05-07T11:57:19.419Z,22.08
2023-05-07T11:59:48.129Z,22.24
2023-05-07T12:02:16.286Z,22.43
2023-05-07T12:04:43.622Z,22.56
2023-05-07T12:07:14.759Z,23.12
2023-05-07T12:09:42.300Z,22.08
2023-05-07T12:12:10.175Z,21.94
2023-05-07T12:14:41.195Z,23.22
2023-05-07T12:17:09.146Z,23.06
2023-05-07T12:19:37.057Z,23.93
2023-05-07T12:22:04.611Z,23.43
2023-05-07T12:24:48.695Z,23.86
2023-05-07T12:27:16.210Z,23.78
2023-05-07T12:29:47.679Z,23.44
2023-05-07T12:32:17.126Z,24.85
2023-05-07T12:34:47.583Z,24.21
2023-05-07T12:37:14.907Z,22.93
2023-05-07T12:39:48.708Z,22.33
2023-05-07T12:42:27.250Z,23.29
2023-05-07T12:44:54.550Z,21.79
2023-05-07T12:47:21.934Z,22.91
2023-05-07T12:49:49.201Z,22.60
2023-05-07T12:52:16.707Z,23.20
2023-05-07T12:54:43.994Z,23.53
2023-05-07T12:57:11.324Z,23.65
2023-05-07T12:59:39.916Z,24.24
2023-05-07T13:02:07.489Z,23.87
2023-05-07T13:04:34.962Z,22.81
2023-05-07T13:07:02.223Z,22.83
2023-05-07T13:09:30.159Z,22.99
2023-05-07T13:11:57.399Z,22.97
2023-05-07T13:14:24.838Z,23.52
2023-05-07T13:16:52.155Z,23.33
2023-05-07T13:19:19.429Z,22.78
2023-05-07T13:21:46.659Z,23.02
2023-05-07T13:24:13.936Z,22.66
2023-05-07T13:26:41.371Z,22.22
2023-05-07T13:29:08.686Z,22.43
2023-05-07T13:31:36.750Z,21.39
2023-05-07T13:34:03.985Z,22.25
2023-05-07T13:36:34.028Z,23.04
2023-05-07T13:39:01.656Z,22.56
2023-05-07T13:41:29.036Z,22.83
2023-05-07T13:43:56.879Z,22.84
2023-05-07T13:46:24.230Z,22.56
2023-05-07T13:48:52.096Z,22.64
2023-05-07T13:51:19.461Z,22.82
2023-05-07T13:53:46.997Z,23.20
2023-05-07T13:56:15.226Z,23.00
2023-05-07T13:58:56.359Z,22.78
2023-05-07T14:01:27.110Z,22.43
2023-05-07T14:03:54.543Z,22.78
2023-05-07T14:06:22.819Z,22.83
2023-05-07T14:08:50.140Z,23.33
2023-05-07T14:11:17.745Z,23.16
2023-05-07T14:13:46.600Z,23.06
2023-05-07T14:16:13.915Z,23.33
2023-05-07T14:18:41.326Z,23.24
2023-05-07T14:21:10.687Z,23.10
2023-05-07T14:23:37.953Z,22.50
2023-05-07T14:26:05.366Z,22.78
2023-05-07T14:28:33.149Z,22.02
2023-05-07T14:31:00.991Z,22.44
2023-05-07T14:33:28.433Z,22.43
2023-05-07T14:35:55.832Z,22.49
2023-05-07T14:38:23.037Z,22.68
2023-05-07T14:40:50.397Z,21.56
2023-05-07T14:43:17.645Z,22.18
2023-05-07T14:45:44.899Z,22.49
2023-05-07T14:48:16.146Z,22.97
2023-05-07T14:50:43.751Z,22.84
2023-05-07T14:53:10.984Z,22.97
2023-05-07T14:55:38.243Z,22.91
2023-05-07T14:58:05.639Z,22.99
2023-05-07T15:00:34.570Z,22.79
2023-05-07T15:03:09.728Z,22.38
2023-05-07T15:05:38.350Z,23.19
2023-05-07T15:08:06.212Z,23.10
2023-05-07T15:10:41.235Z,23.14
2023-05-07T15:13:15.302Z,23.32
2023-05-07T15:15:44.679Z,23.18
2023-05-07T15:18:12.124Z,22.83
2023-05-07T15:20:40.374Z,22.89
2023-05-07T15:23:10.841Z,23.60
2023-05-07T15:25:38.158Z,23.78
2023-05-07T15:28:05.460Z,24.62
2023-05-07T15:30:32.955Z,24.30
2023-05-07T15:33:02.231Z,24.74
2023-05-07T15:35:29.769Z,24.92
2023-05-07T15:37:57.568Z,25.63
2023-05-07T15:40:24.771Z,26.30
2023-05-07T15:42:54.473Z,26.76
2023-05-07T15:45:22.986Z,27.09
2023-05-07T15:47:50.425Z,27.90
2023-05-07T15:50:18.332Z,27.17
2023-05-07T15:52:47.242Z,27.95
2023-05-07T15:55:15.486Z,27.27
2023-05-07T15:57:43.287Z,27.51
2023-05-07T16:00:12.837Z,27.84
2023-05-07T16:02:40.996Z,28.01
2023-05-07T16:05:12.115Z,27.90
2023-05-07T16:07:41.034Z,28.59
2023-05-07T16:10:08.909Z,28.12
2023-05-07T16:12:36.364Z,28.64
2023-05-07T16:15:05.037Z,27.80
2023-05-07T16:17:32.522Z,27.95
2023-05-07T16:20:02.098Z,27.80
2023-05-07T16:22:29.745Z,28.09
2023-05-07T16:24:57.163Z,28.56
2023-05-07T16:27:25.173Z,28.45
2023-05-07T16:29:52.511Z,28.99
2023-05-07T16:32:19.737Z,28.92
2023-05-07T16:34:47.437Z,29.24
2023-05-07T16:37:15.189Z,29.65
2023-05-07T16:39:42.982Z,29.54
2023-05-07T16:42:10.272Z,30.01
2023-05-07T16:44:37.547Z,30.15
2023-05-07T16:47:04.848Z,29.97
2023-05-07T16:49:32.757Z,30.42
2023-05-07T16:52:00.514Z,30.45
2023-05-07T16:54:28.597Z,30.66
2023-05-07T16:56:55.841Z,30.55
2023-05-07T16:59:23.654Z,30.72
2023-05-07T17:01:52.507Z,30.36
2023-05-07T17:04:19.858Z,31.53
2023-05-07T17:06:47.193Z,30.97
2023-05-07T17:09:14.384Z,30.97
2023-05-07T17:11:41.690Z,31.01
2023-05-07T17:14:09.014Z,31.54
2023-05-07T17:16:36.288Z,31.93
2023-05-07T17:19:03.683Z,32.46
2023-05-07T17:21:31.009Z,31.87
2023-05-07T17:23:58.277Z,31.53
2023-05-07T17:26:25.612Z,31.88
2023-05-07T17:28:52.873Z,31.81
2023-05-07T17:31:20.133Z,32.42
2023-05-07T17:33:47.363Z,32.14
2023-05-07T17:36:15.015Z,32.56
2023-05-07T17:38:42.221Z,32.96
2023-05-07T17:41:09.466Z,33.04
2023-05-07T17:43:36.708Z,32.60
2023-05-07T17:46:03.993Z,32.98
2023-05-07T17:48:31.748Z,33.17
2023-05-07T17:51:03.210Z,33.50
2023-05-07T17:53:31.266Z,33.25
2023-05-07T17:55:58.671Z,33.10
2023-05-07T17:58:26.703Z,33.73
2023-05-07T18:00:54.920Z,34.36
2023-05-07T18:03:24.524Z,33.73
2023-05-07T18:05:51.927Z,34.15
2023-05-07T18:08:19.200Z,34.15
2023-05-07T18:10:46.936Z,34.03
2023-05-07T18:13:14.371Z,34.46
2023-05-07T18:15:41.782Z,34.50
2023-05-07T18:18:09.146Z,34.55
2023-05-07T18:20:36.659Z,33.50
2023-05-07T18:23:04.717Z,34.32
2023-05-07T18:25:32.908Z,34.07
2023-05-07T18:28:00.183Z,34.53
2023-05-07T18:30:27.447Z,34.40
2023-05-07T18:32:54.892Z,34.11
2023-05-07T18:35:22.194Z,34.44
2023-05-07T18:37:49.383Z,34.25
2023-05-07T18:40:16.593Z,34.17
2023-05-07T18:42:43.822Z,33.85
2023-05-07T18:45:12.206Z,34.65
2023-05-07T18:47:39.628Z,34.27
2023-05-07T18:50:08.254Z,34.57
2023-05-07T18:52:36.134Z,34.19
2023-05-07T18:55:03.804Z,34.48
2023-05-07T18:57:31.207Z,34.70
2023-05-07T18:59:58.487Z,34.74
2023-05-07T19:02:25.713Z,34.94
2023-05-07T19:04:53.028Z,34.68
2023-05-07T19:07:20.358Z,34.62
2023-05-07T19:10:01.134Z,34.34
2023-05-07T19:12:32.198Z,35.02
2023-05-07T19:14:59.390Z,34.74
2023-05-07T19:17:26.682Z,35.10
2023-05-07T19:19:53.915Z,35.22
2023-05-07T19:22:21.234Z,35.56
2023-05-07T19:24:48.456Z,35.33
2023-05-07T19:27:16.048Z,35.18
2023-05-07T19:29:43.434Z,35.22
2023-05-07T19:32:11.091Z,35.20
2023-05-07T19:34:38.668Z,35.67
2023-05-07T19:37:05.949Z,35.69
2023-05-07T19:39:33.215Z,35.61
2023-05-07T19:42:01.248Z,36.23
2023-05-07T19:44:28.587Z,36.44
2023-05-07T19:46:55.912Z,35.79
2023-05-07T19:49:23.195Z,36.08
2023-05-07T19:51:50.462Z,36.32
2023-05-07T19:54:17.861Z,36.19
2023-05-07T19:56:45.304Z,35.64
2023-05-07T19:59:12.588Z,36.06
2023-05-07T20:01:39.878Z,35.77
2023-05-07T20:04:07.291Z,35.88
2023-05-07T20:06:34.794Z,36.21
2023-05-07T20:09:02.022Z,35.67
2023-05-07T20:11:29.481Z,36.36
2023-05-07T20:13:56.728Z,36.22
2023-05-07T20:16:23.980Z,36.05
2023-05-07T20:18:51.356Z,35.94
2023-05-07T20:21:18.777Z,35.55
2023-05-07T20:23:46.099Z,35.74
2023-05-07T20:26:13.735Z,36.46
2023-05-07T20:28:40.972Z,36.27
2023-05-07T20:31:08.288Z,36.11
2023-05-07T20:33:35.684Z,36.96
2023-05-07T20:36:03.575Z,36.42
2023-05-07T20:38:33.923Z,37.10
2023-05-07T20:41:11.833Z,36.55
2023-05-07T20:43:39.100Z,36.69
2023-05-07T20:46:07.711Z,36.67
2023-05-07T20:48:35.591Z,36.75
2023-05-07T20:51:03.094Z,36.86
2023-05-07T20:53:31.447Z,36.54
2023-05-07T20:55:59.312Z,36.97
2023-05-07T20:58:28.189Z,36.54
2023-05-07T21:00:55.761Z,36.41
2023-05-07T21:03:23.406Z,36.82
2023-05-07T21:05:53.524Z,36.89
2023-05-07T21:08:21.151Z,36.53
2023-05-07T21:10:48.629Z,36.86
2023-05-07T21:13:16.068Z,36.85
2023-05-07T21:15:43.319Z,36.89
2023-05-07T21:18:11.129Z,37.99
2023-05-07T21:20:38.445Z,37.29
2023-05-07T21:23:05.725Z,37.78
2023-05-07T21:25:32.999Z,37.62
2023-05-07T21:28:00.700Z,38.07
2023-05-07T21:30:28.015Z,37.70
2023-05-07T21:32:55.676Z,37.93
2023-05-07T21:35:23.252Z,37.70
2023-05-07T21:37:50.469Z,38.12
2023-05-07T21:40:17.816Z,37.62
2023-05-07T21:42:45.235Z,38.11
2023-05-07T21:45:12.956Z,38.00
2023-05-07T21:47:40.542Z,38.18
2023-05-07T21:50:08.149Z,38.11
2023-05-07T21:52:35.533Z,38.57
2023-05-07T21:55:03.108Z,38.04
2023-05-07T21:57:30.557Z,38.12
2023-05-07T21:59:57.876Z,38.59
2023-05-07T22:02:25.804Z,38.89
2023-05-07T22:04:53.240Z,38.61
2023-05-07T22:07:20.723Z,38.49
2023-05-07T22:09:48.035Z,39.37
2023-05-07T22:12:16.485Z,38.71
2023-05-07T22:14:43.825Z,39.45
2023-05-07T22:17:11.127Z,39.10
2023-05-07T22:19:38.514Z,39.49
2023-05-07T22:22:05.723Z,38.91
2023-05-07T22:24:32.953Z,39.22
2023-05-07T22:27:00.337Z,39.50
2023-05-07T22:29:27.762Z,39.46
2023-05-07T22:31:55.031Z,39.39
2023-05-07T22:34:22.254Z,39.51
2023-05-07T22:36:49.492Z,39.26
2023-05-07T22:39:16.971Z,39.67
2023-05-07T22:41:44.229Z,39.88
2023-05-07T22:44:11.564Z,39.19
2023-05-07T22:46:38.983Z,39.59
2023-05-07T22:49:06.411Z,39.64
2023-05-07T22:51:33.929Z,39.25
2023-05-07T22:54:01.154Z,39.62
2023-05-07T22:56:28.503Z,39.43
2023-05-07T22:58:55.781Z,39.46
2023-05-07T23:01:23.070Z,39.53
2023-05-07T23:03:50.323Z,39.69
2023-05-07T23:06:17.552Z,40.09
2023-05-07T23:08:44.927Z,39.77
2023-05-07T23:11:12.170Z,39.89
2023-05-07T23:13:39.561Z,40.00
2023-05-07T23:16:07.027Z,40.10
2023-05-07T23:18:34.965Z,39.81
2023-05-07T23:21:02.250Z,39.81
2023-05-07T23:23:33.672Z,39.96
2023-05-07T23:26:01.057Z,39.78
2023-05-07T23:28:28.864Z,40.26
2023-05-07T23:30:56.294Z,39.95
2023-05-07T23:33:23.911Z,40.20
2023-05-07T23:35:59.290Z,40.21
2023-05-07T23:38:27.037Z,40.12
2023-05-07T23:40:54.592Z,40.25
2023-05-07T23:43:21.945Z,39.88
2023-05-07T23:45:49.206Z,40.16
2023-05-07T23:48:16.817Z,40.57
2023-05-07T23:50:44.194Z,40.10
2023-05-07T23:53:11.431Z,40.34
2023-05-07T23:55:38.737Z,40.78
2023-05-07T23:58:05.942Z,40.42
